sensor_id;sensor_type;location;lat;lon;timestamp;P1;durP1;ratioP1;P2;durP2;ratioP2
7324;SDS011;3703;48.016;7.802;2023-06-22T00:02:21;11.43;;;5.60;;
7324;SDS011;3703;48.016;7.802;2023-06-22T00:04:50;9.33;;;6.27;;
7324;SDS011;3703;48.016;7.802;2023-06-22T00:07:17;11.80;;;6.60;;
7324;SDS011;3703;48.016;7.802;2023-06-22T00:09:44;8.97;;;5.97;;
7324;SDS011;3703;48.016;7.802;2023-06-22T00:12:11;8.07;;;5.40;;
7324;SDS011;3703;48.016;7.802;2023-06-22T00:14:38;8.47;;;5.60;;
7324;SDS011;3703;48.016;7.802;2023-06-22T00:17:05;11.07;;;5.53;;
7324;SDS011;3703;48.016;7.802;2023-06-22T00:19:33;8.80;;;6.37;;
7324;SDS011;3703;48.016;7.802;2023-06-22T00:22:02;10.93;;;6.00;;
7324;SDS011;3703;48.016;7.802;2023-06-22T00:24:29;8.73;;;6.03;;
7324;SDS011;3703;48.016;7.802;2023-06-22T00:26:56;10.90;;;6.13;;
7324;SDS011;3703;48.016;7.802;2023-06-22T00:29:23;11.30;;;6.33;;
7324;SDS011;3703;48.016;7.802;2023-06-22T00:31:51;8.47;;;5.83;;
7324;SDS011;3703;48.016;7.802;2023-06-22T00:34:18;9.30;;;5.97;;
7324;SDS011;3703;48.016;7.802;2023-06-22T00:36:45;9.70;;;6.10;;
7324;SDS011;3703;48.016;7.802;2023-06-22T00:39:14;8.67;;;6.07;;
7324;SDS011;3703;48.016;7.802;2023-06-22T00:41:41;11.53;;;6.67;;
7324;SDS011;3703;48.016;7.802;2023-06-22T00:44:08;7.60;;;5.47;;
7324;SDS011;3703;48.016;7.802;2023-06-22T00:46:35;11.90;;;6.07;;
7324;SDS011;3703;48.016;7.802;2023-06-22T00:49:03;9.07;;;7.20;;
7324;SDS011;3703;48.016;7.802;2023-06-22T00:51:30;9.70;;;6.63;;
7324;SDS011;3703;48.016;7.802;2023-06-22T00:53:58;11.33;;;6.43;;
7324;SDS011;3703;48.016;7.802;2023-06-22T00:56:27;13.03;;;6.63;;
7324;SDS011;3703;48.016;7.802;2023-06-22T00:58:55;11.53;;;7.00;;
7324;SDS011;3703;48.016;7.802;2023-06-22T01:01:24;10.37;;;7.27;;
7324;SDS011;3703;48.016;7.802;2023-06-22T01:03:51;14.03;;;7.13;;
7324;SDS011;3703;48.016;7.802;2023-06-22T01:06:22;11.70;;;7.13;;
7324;SDS011;3703;48.016;7.802;2023-06-22T01:09:00;12.47;;;7.20;;
7324;SDS011;3703;48.016;7.802;2023-06-22T01:11:36;14.97;;;7.23;;
7324;SDS011;3703;48.016;7.802;2023-06-22T01:14:12;11.97;;;6.50;;
7324;SDS011;3703;48.016;7.802;2023-06-22T01:16:44;14.43;;;6.80;;
7324;SDS011;3703;48.016;7.802;2023-06-22T01:19:18;10.60;;;6.23;;
7324;SDS011;3703;48.016;7.802;2023-06-22T01:22:02;12.43;;;7.23;;
7324;SDS011;3703;48.016;7.802;2023-06-22T01:24:32;12.37;;;7.43;;
7324;SDS011;3703;48.016;7.802;2023-06-22T01:27:23;9.17;;;6.40;;
7324;SDS011;3703;48.016;7.802;2023-06-22T01:30:09;10.00;;;6.90;;
7324;SDS011;3703;48.016;7.802;2023-06-22T01:32:38;16.60;;;8.80;;
7324;SDS011;3703;48.016;7.802;2023-06-22T01:35:07;14.80;;;9.63;;
7324;SDS011;3703;48.016;7.802;2023-06-22T01:37:37;16.43;;;9.43;;
7324;SDS011;3703;48.016;7.802;2023-06-22T01:40:05;13.27;;;8.27;;
7324;SDS011;3703;48.016;7.802;2023-06-22T01:42:35;16.23;;;11.20;;
7324;SDS011;3703;48.016;7.802;2023-06-22T01:45:03;12.80;;;9.30;;
7324;SDS011;3703;48.016;7.802;2023-06-22T01:47:35;15.70;;;9.63;;
7324;SDS011;3703;48.016;7.802;2023-06-22T01:50:03;14.73;;;9.70;;
7324;SDS011;3703;48.016;7.802;2023-06-22T01:52:31;13.83;;;10.53;;
7324;SDS011;3703;48.016;7.802;2023-06-22T01:54:59;17.03;;;10.00;;
7324;SDS011;3703;48.016;7.802;2023-06-22T01:57:26;16.60;;;10.20;;
7324;SDS011;3703;48.016;7.802;2023-06-22T01:59:56;12.53;;;9.43;;
7324;SDS011;3703;48.016;7.802;2023-06-22T02:02:28;13.27;;;9.10;;
7324;SDS011;3703;48.016;7.802;2023-06-22T02:05:04;17.73;;;10.43;;
7324;SDS011;3703;48.016;7.802;2023-06-22T02:07:37;12.10;;;8.47;;
7324;SDS011;3703;48.016;7.802;2023-06-22T02:10:11;18.33;;;12.10;;
7324;SDS011;3703;48.016;7.802;2023-06-22T02:12:40;19.70;;;11.13;;
7324;SDS011;3703;48.016;7.802;2023-06-22T02:15:10;21.63;;;12.90;;
7324;SDS011;3703;48.016;7.802;2023-06-22T02:17:40;16.60;;;11.57;;
7324;SDS011;3703;48.016;7.802;2023-06-22T02:20:12;14.97;;;9.90;;
7324;SDS011;3703;48.016;7.802;2023-06-22T02:22:39;14.90;;;10.43;;
7324;SDS011;3703;48.016;7.802;2023-06-22T02:25:07;17.40;;;11.80;;
7324;SDS011;3703;48.016;7.802;2023-06-22T02:27:34;16.53;;;9.43;;
7324;SDS011;3703;48.016;7.802;2023-06-22T02:30:05;18.63;;;10.63;;
7324;SDS011;3703;48.016;7.802;2023-06-22T02:32:34;14.60;;;10.17;;
7324;SDS011;3703;48.016;7.802;2023-06-22T02:35:03;14.93;;;10.63;;
7324;SDS011;3703;48.016;7.802;2023-06-22T02:37:31;20.33;;;11.30;;
7324;SDS011;3703;48.016;7.802;2023-06-22T02:39:58;14.80;;;9.83;;
7324;SDS011;3703;48.016;7.802;2023-06-22T02:42:26;15.67;;;9.87;;
7324;SDS011;3703;48.016;7.802;2023-06-22T02:44:53;12.53;;;9.47;;
7324;SDS011;3703;48.016;7.802;2023-06-22T02:47:20;14.30;;;9.63;;
7324;SDS011;3703;48.016;7.802;2023-06-22T02:49:47;13.93;;;10.00;;
7324;SDS011;3703;48.016;7.802;2023-06-22T02:52:16;14.87;;;9.67;;
7324;SDS011;3703;48.016;7.802;2023-06-22T02:54:44;16.37;;;9.07;;
7324;SDS011;3703;48.016;7.802;2023-06-22T02:57:11;15.07;;;9.77;;
7324;SDS011;3703;48.016;7.802;2023-06-22T02:59:39;16.43;;;9.93;;
7324;SDS011;3703;48.016;7.802;2023-06-22T03:02:07;13.93;;;9.57;;
7324;SDS011;3703;48.016;7.802;2023-06-22T03:04:34;17.80;;;9.70;;
7324;SDS011;3703;48.016;7.802;2023-06-22T03:07:01;12.53;;;9.30;;
7324;SDS011;3703;48.016;7.802;2023-06-22T03:09:30;14.90;;;10.60;;
7324;SDS011;3703;48.016;7.802;2023-06-22T03:11:58;17.07;;;9.50;;
7324;SDS011;3703;48.016;7.802;2023-06-22T03:14:25;12.70;;;8.80;;
7324;SDS011;3703;48.016;7.802;2023-06-22T03:16:52;14.23;;;9.53;;
7324;SDS011;3703;48.016;7.802;2023-06-22T03:19:20;17.07;;;9.90;;
7324;SDS011;3703;48.016;7.802;2023-06-22T03:21:47;15.20;;;9.40;;
7324;SDS011;3703;48.016;7.802;2023-06-22T03:24:14;16.90;;;9.90;;
7324;SDS011;3703;48.016;7.802;2023-06-22T03:26:42;13.57;;;9.80;;
7324;SDS011;3703;48.016;7.802;2023-06-22T03:29:11;17.80;;;10.83;;
7324;SDS011;3703;48.016;7.802;2023-06-22T03:31:39;13.50;;;9.27;;
7324;SDS011;3703;48.016;7.802;2023-06-22T03:34:06;11.60;;;8.90;;
7324;SDS011;3703;48.016;7.802;2023-06-22T03:36:33;26.43;;;10.30;;
7324;SDS011;3703;48.016;7.802;2023-06-22T03:39:00;13.67;;;9.43;;
7324;SDS011;3703;48.016;7.802;2023-06-22T03:41:28;15.87;;;9.13;;
7324;SDS011;3703;48.016;7.802;2023-06-22T03:43:56;15.27;;;8.87;;
7324;SDS011;3703;48.016;7.802;2023-06-22T03:46:24;16.70;;;9.10;;
7324;SDS011;3703;48.016;7.802;2023-06-22T03:48:51;13.30;;;8.63;;
7324;SDS011;3703;48.016;7.802;2023-06-22T03:51:18;16.03;;;9.03;;
7324;SDS011;3703;48.016;7.802;2023-06-22T03:53:45;14.10;;;9.07;;
7324;SDS011;3703;48.016;7.802;2023-06-22T03:56:13;13.60;;;9.07;;
7324;SDS011;3703;48.016;7.802;2023-06-22T03:58:45;14.73;;;8.70;;
7324;SDS011;3703;48.016;7.802;2023-06-22T04:01:14;15.90;;;9.93;;
7324;SDS011;3703;48.016;7.802;2023-06-22T04:03:42;13.83;;;8.67;;
7324;SDS011;3703;48.016;7.802;2023-06-22T04:06:09;14.13;;;9.10;;
7324;SDS011;3703;48.016;7.802;2023-06-22T04:08:36;16.07;;;9.10;;
7324;SDS011;3703;48.016;7.802;2023-06-22T04:11:03;26.37;;;9.90;;
7324;SDS011;3703;48.016;7.802;2023-06-22T04:13:31;14.37;;;9.07;;
7324;SDS011;3703;48.016;7.802;2023-06-22T04:15:58;14.70;;;9.57;;
7324;SDS011;3703;48.016;7.802;2023-06-22T04:18:27;13.97;;;8.57;;
7324;SDS011;3703;48.016;7.802;2023-06-22T04:20:55;21.10;;;9.30;;
7324;SDS011;3703;48.016;7.802;2023-06-22T04:23:22;16.27;;;9.27;;
7324;SDS011;3703;48.016;7.802;2023-06-22T04:25:49;16.17;;;9.67;;
7324;SDS011;3703;48.016;7.802;2023-06-22T04:28:17;16.83;;;10.37;;
7324;SDS011;3703;48.016;7.802;2023-06-22T04:30:44;14.60;;;9.43;;
7324;SDS011;3703;48.016;7.802;2023-06-22T04:33:12;15.80;;;10.10;;
7324;SDS011;3703;48.016;7.802;2023-06-22T04:35:41;18.07;;;10.07;;
7324;SDS011;3703;48.016;7.802;2023-06-22T04:38:11;17.57;;;9.60;;
7324;SDS011;3703;48.016;7.802;2023-06-22T04:40:39;14.07;;;9.40;;
7324;SDS011;3703;48.016;7.802;2023-06-22T04:43:07;16.43;;;8.17;;
7324;SDS011;3703;48.016;7.802;2023-06-22T04:45:35;15.50;;;9.07;;
7324;SDS011;3703;48.016;7.802;2023-06-22T04:48:03;15.80;;;8.37;;
7324;SDS011;3703;48.016;7.802;2023-06-22T04:50:31;12.77;;;8.50;;
7324;SDS011;3703;48.016;7.802;2023-06-22T04:53:00;12.97;;;8.10;;
7324;SDS011;3703;48.016;7.802;2023-06-22T04:55:30;13.03;;;8.10;;
7324;SDS011;3703;48.016;7.802;2023-06-22T04:57:57;17.43;;;8.40;;
7324;SDS011;3703;48.016;7.802;2023-06-22T05:00:30;12.30;;;8.30;;
7324;SDS011;3703;48.016;7.802;2023-06-22T05:02:57;11.63;;;7.83;;
7324;SDS011;3703;48.016;7.802;2023-06-22T05:05:25;15.67;;;8.20;;
7324;SDS011;3703;48.016;7.802;2023-06-22T05:07:52;15.33;;;8.97;;
7324;SDS011;3703;48.016;7.802;2023-06-22T05:10:26;13.97;;;9.00;;
7324;SDS011;3703;48.016;7.802;2023-06-22T05:12:54;16.07;;;8.50;;
7324;SDS011;3703;48.016;7.802;2023-06-22T05:15:21;14.83;;;8.90;;
7324;SDS011;3703;48.016;7.802;2023-06-22T05:17:52;13.57;;;8.23;;
7324;SDS011;3703;48.016;7.802;2023-06-22T05:20:19;13.23;;;8.50;;
7324;SDS011;3703;48.016;7.802;2023-06-22T05:22:47;12.17;;;7.93;;
7324;SDS011;3703;48.016;7.802;2023-06-22T05:25:14;13.30;;;8.03;;
7324;SDS011;3703;48.016;7.802;2023-06-22T05:27:42;14.10;;;8.70;;
7324;SDS011;3703;48.016;7.802;2023-06-22T05:30:10;12.27;;;8.10;;
7324;SDS011;3703;48.016;7.802;2023-06-22T05:32:37;15.70;;;8.83;;
7324;SDS011;3703;48.016;7.802;2023-06-22T05:35:05;14.17;;;8.93;;
7324;SDS011;3703;48.016;7.802;2023-06-22T05:37:32;16.33;;;8.60;;
7324;SDS011;3703;48.016;7.802;2023-06-22T05:40:00;14.33;;;9.23;;
7324;SDS011;3703;48.016;7.802;2023-06-22T05:42:28;16.10;;;8.60;;
7324;SDS011;3703;48.016;7.802;2023-06-22T05:44:57;14.93;;;8.30;;
7324;SDS011;3703;48.016;7.802;2023-06-22T05:47:24;16.30;;;9.30;;
7324;SDS011;3703;48.016;7.802;2023-06-22T05:49:52;20.67;;;10.63;;
7324;SDS011;3703;48.016;7.802;2023-06-22T05:52:19;14.87;;;10.73;;
7324;SDS011;3703;48.016;7.802;2023-06-22T05:54:46;16.17;;;8.80;;
7324;SDS011;3703;48.016;7.802;2023-06-22T05:57:13;14.90;;;8.90;;
7324;SDS011;3703;48.016;7.802;2023-06-22T05:59:40;16.50;;;9.63;;
7324;SDS011;3703;48.016;7.802;2023-06-22T06:02:09;16.10;;;10.07;;
7324;SDS011;3703;48.016;7.802;2023-06-22T06:04:36;15.30;;;10.17;;
7324;SDS011;3703;48.016;7.802;2023-06-22T06:07:03;12.23;;;9.03;;
7324;SDS011;3703;48.016;7.802;2023-06-22T06:09:30;14.07;;;9.93;;
7324;SDS011;3703;48.016;7.802;2023-06-22T06:11:58;13.80;;;9.63;;
7324;SDS011;3703;48.016;7.802;2023-06-22T06:14:25;14.03;;;9.70;;
7324;SDS011;3703;48.016;7.802;2023-06-22T06:16:52;13.90;;;9.23;;
7324;SDS011;3703;48.016;7.802;2023-06-22T06:19:21;16.13;;;9.40;;
7324;SDS011;3703;48.016;7.802;2023-06-22T06:21:48;13.23;;;8.63;;
7324;SDS011;3703;48.016;7.802;2023-06-22T06:24:15;10.53;;;8.03;;
7324;SDS011;3703;48.016;7.802;2023-06-22T06:26:42;15.50;;;9.70;;
7324;SDS011;3703;48.016;7.802;2023-06-22T06:29:09;13.30;;;8.30;;
7324;SDS011;3703;48.016;7.802;2023-06-22T06:31:37;15.37;;;9.03;;
7324;SDS011;3703;48.016;7.802;2023-06-22T06:34:04;16.67;;;11.23;;
7324;SDS011;3703;48.016;7.802;2023-06-22T06:36:32;14.83;;;8.63;;
7324;SDS011;3703;48.016;7.802;2023-06-22T06:38:59;18.17;;;10.13;;
7324;SDS011;3703;48.016;7.802;2023-06-22T06:41:26;15.30;;;10.97;;
7324;SDS011;3703;48.016;7.802;2023-06-22T06:43:54;19.83;;;9.70;;
7324;SDS011;3703;48.016;7.802;2023-06-22T06:46:21;16.40;;;10.83;;
7324;SDS011;3703;48.016;7.802;2023-06-22T06:48:48;18.47;;;11.50;;
7324;SDS011;3703;48.016;7.802;2023-06-22T06:51:15;16.80;;;11.20;;
7324;SDS011;3703;48.016;7.802;2023-06-22T06:53:44;18.60;;;11.37;;
7324;SDS011;3703;48.016;7.802;2023-06-22T06:56:11;19.83;;;13.77;;
7324;SDS011;3703;48.016;7.802;2023-06-22T06:58:40;17.47;;;11.27;;
7324;SDS011;3703;48.016;7.802;2023-06-22T07:01:10;18.87;;;11.30;;
7324;SDS011;3703;48.016;7.802;2023-06-22T07:03:37;19.77;;;11.43;;
7324;SDS011;3703;48.016;7.802;2023-06-22T07:06:04;14.93;;;10.43;;
7324;SDS011;3703;48.016;7.802;2023-06-22T07:08:31;17.90;;;12.10;;
7324;SDS011;3703;48.016;7.802;2023-06-22T07:11:01;15.83;;;11.27;;
7324;SDS011;3703;48.016;7.802;2023-06-22T07:13:29;17.27;;;11.27;;
7324;SDS011;3703;48.016;7.802;2023-06-22T07:15:56;17.57;;;11.10;;
7324;SDS011;3703;48.016;7.802;2023-06-22T07:18:24;13.70;;;10.57;;
7324;SDS011;3703;48.016;7.802;2023-06-22T07:20:51;16.97;;;10.73;;
7324;SDS011;3703;48.016;7.802;2023-06-22T07:23:19;17.90;;;10.53;;
7324;SDS011;3703;48.016;7.802;2023-06-22T07:25:46;12.93;;;9.30;;
7324;SDS011;3703;48.016;7.802;2023-06-22T07:28:15;17.40;;;9.20;;
7324;SDS011;3703;48.016;7.802;2023-06-22T07:30:42;21.83;;;10.10;;
7324;SDS011;3703;48.016;7.802;2023-06-22T07:33:10;12.20;;;9.27;;
7324;SDS011;3703;48.016;7.802;2023-06-22T07:35:37;21.07;;;8.93;;
7324;SDS011;3703;48.016;7.802;2023-06-22T07:38:04;14.83;;;8.83;;
7324;SDS011;3703;48.016;7.802;2023-06-22T07:40:32;16.93;;;10.00;;
7324;SDS011;3703;48.016;7.802;2023-06-22T07:43:00;12.43;;;8.77;;
7324;SDS011;3703;48.016;7.802;2023-06-22T07:45:29;13.03;;;8.80;;
7324;SDS011;3703;48.016;7.802;2023-06-22T07:47:58;11.60;;;7.97;;
7324;SDS011;3703;48.016;7.802;2023-06-22T07:50:25;12.67;;;7.60;;
7324;SDS011;3703;48.016;7.802;2023-06-22T07:52:52;14.73;;;9.50;;
7324;SDS011;3703;48.016;7.802;2023-06-22T07:55:20;14.97;;;8.60;;
7324;SDS011;3703;48.016;7.802;2023-06-22T07:57:47;11.70;;;7.90;;
7324;SDS011;3703;48.016;7.802;2023-06-22T08:00:17;11.77;;;7.73;;
7324;SDS011;3703;48.016;7.802;2023-06-22T08:02:46;14.60;;;8.53;;
7324;SDS011;3703;48.016;7.802;2023-06-22T08:05:14;11.90;;;7.80;;
7324;SDS011;3703;48.016;7.802;2023-06-22T08:07:42;14.30;;;8.40;;
7324;SDS011;3703;48.016;7.802;2023-06-22T08:10:10;12.93;;;7.50;;
7324;SDS011;3703;48.016;7.802;2023-06-22T08:12:38;10.77;;;7.27;;
7324;SDS011;3703;48.016;7.802;2023-06-22T08:15:06;9.77;;;7.40;;
7324;SDS011;3703;48.016;7.802;2023-06-22T08:17:34;13.87;;;8.37;;
7324;SDS011;3703;48.016;7.802;2023-06-22T08:20:05;14.97;;;8.13;;
7324;SDS011;3703;48.016;7.802;2023-06-22T08:22:36;14.70;;;7.30;;
7324;SDS011;3703;48.016;7.802;2023-06-22T08:25:04;11.30;;;7.47;;
7324;SDS011;3703;48.016;7.802;2023-06-22T08:27:33;13.03;;;6.90;;
7324;SDS011;3703;48.016;7.802;2023-06-22T08:30:00;12.80;;;7.53;;
7324;SDS011;3703;48.016;7.802;2023-06-22T08:32:29;15.43;;;7.70;;
7324;SDS011;3703;48.016;7.802;2023-06-22T08:34:57;15.73;;;7.67;;
7324;SDS011;3703;48.016;7.802;2023-06-22T08:37:26;14.43;;;7.33;;
7324;SDS011;3703;48.016;7.802;2023-06-22T08:39:56;34.27;;;10.77;;
7324;SDS011;3703;48.016;7.802;2023-06-22T08:42:25;17.10;;;8.23;;
7324;SDS011;3703;48.016;7.802;2023-06-22T08:44:52;10.67;;;7.10;;
7324;SDS011;3703;48.016;7.802;2023-06-22T08:47:19;17.07;;;8.67;;
7324;SDS011;3703;48.016;7.802;2023-06-22T08:49:48;9.60;;;7.10;;
7324;SDS011;3703;48.016;7.802;2023-06-22T08:52:15;14.77;;;7.40;;
7324;SDS011;3703;48.016;7.802;2023-06-22T08:54:45;15.90;;;7.20;;
7324;SDS011;3703;48.016;7.802;2023-06-22T08:57:12;13.83;;;8.13;;
7324;SDS011;3703;48.016;7.802;2023-06-22T08:59:39;10.03;;;5.87;;
7324;SDS011;3703;48.016;7.802;2023-06-22T09:02:06;12.77;;;7.20;;
7324;SDS011;3703;48.016;7.802;2023-06-22T09:04:34;13.00;;;7.30;;
7324;SDS011;3703;48.016;7.802;2023-06-22T09:07:02;8.53;;;6.43;;
7324;SDS011;3703;48.016;7.802;2023-06-22T09:09:30;11.40;;;6.50;;
7324;SDS011;3703;48.016;7.802;2023-06-22T09:11:58;9.97;;;6.27;;
7324;SDS011;3703;48.016;7.802;2023-06-22T09:14:25;10.93;;;6.07;;
7324;SDS011;3703;48.016;7.802;2023-06-22T09:16:53;10.03;;;6.13;;
7324;SDS011;3703;48.016;7.802;2023-06-22T09:19:20;10.33;;;6.23;;
7324;SDS011;3703;48.016;7.802;2023-06-22T09:21:48;13.47;;;6.20;;
7324;SDS011;3703;48.016;7.802;2023-06-22T09:24:15;10.00;;;6.63;;
7324;SDS011;3703;48.016;7.802;2023-06-22T09:26:42;9.13;;;5.90;;
7324;SDS011;3703;48.016;7.802;2023-06-22T09:29:11;11.33;;;6.40;;
7324;SDS011;3703;48.016;7.802;2023-06-22T09:31:38;9.70;;;6.80;;
7324;SDS011;3703;48.016;7.802;2023-06-22T09:34:06;14.63;;;6.33;;
7324;SDS011;3703;48.016;7.802;2023-06-22T09:36:33;11.10;;;6.33;;
7324;SDS011;3703;48.016;7.802;2023-06-22T09:39:00;13.23;;;6.67;;
7324;SDS011;3703;48.016;7.802;2023-06-22T09:41:31;10.40;;;6.43;;
7324;SDS011;3703;48.016;7.802;2023-06-22T09:43:58;11.23;;;5.93;;
7324;SDS011;3703;48.016;7.802;2023-06-22T09:46:26;9.47;;;6.07;;
7324;SDS011;3703;48.016;7.802;2023-06-22T09:48:53;9.53;;;6.30;;
7324;SDS011;3703;48.016;7.802;2023-06-22T09:51:21;11.53;;;7.00;;
7324;SDS011;3703;48.016;7.802;2023-06-22T09:53:48;11.50;;;6.47;;
7324;SDS011;3703;48.016;7.802;2023-06-22T09:56:16;8.97;;;6.40;;
7324;SDS011;3703;48.016;7.802;2023-06-22T09:58:43;11.33;;;6.87;;
7324;SDS011;3703;48.016;7.802;2023-06-22T10:01:11;11.47;;;6.10;;
7324;SDS011;3703;48.016;7.802;2023-06-22T10:03:41;9.07;;;6.40;;
7324;SDS011;3703;48.016;7.802;2023-06-22T10:06:08;11.10;;;6.47;;
7324;SDS011;3703;48.016;7.802;2023-06-22T10:08:35;10.63;;;6.53;;
7324;SDS011;3703;48.016;7.802;2023-06-22T10:11:02;9.83;;;6.20;;
7324;SDS011;3703;48.016;7.802;2023-06-22T10:13:30;11.80;;;5.80;;
7324;SDS011;3703;48.016;7.802;2023-06-22T10:15:57;11.47;;;6.63;;
7324;SDS011;3703;48.016;7.802;2023-06-22T10:18:24;8.37;;;6.30;;
7324;SDS011;3703;48.016;7.802;2023-06-22T10:20:53;13.40;;;6.40;;
7324;SDS011;3703;48.016;7.802;2023-06-22T10:23:20;10.87;;;6.03;;
7324;SDS011;3703;48.016;7.802;2023-06-22T10:25:47;12.67;;;6.40;;
7324;SDS011;3703;48.016;7.802;2023-06-22T10:28:14;11.53;;;6.70;;
7324;SDS011;3703;48.016;7.802;2023-06-22T10:30:42;12.17;;;6.60;;
7324;SDS011;3703;48.016;7.802;2023-06-22T10:33:10;11.40;;;6.60;;
7324;SDS011;3703;48.016;7.802;2023-06-22T10:35:38;10.60;;;6.07;;
7324;SDS011;3703;48.016;7.802;2023-06-22T10:38:07;11.13;;;6.57;;
7324;SDS011;3703;48.016;7.802;2023-06-22T10:40:34;12.20;;;6.80;;
7324;SDS011;3703;48.016;7.802;2023-06-22T10:43:01;11.13;;;7.40;;
7324;SDS011;3703;48.016;7.802;2023-06-22T10:45:30;12.13;;;7.33;;
7324;SDS011;3703;48.016;7.802;2023-06-22T10:47:58;11.73;;;6.60;;
7324;SDS011;3703;48.016;7.802;2023-06-22T10:50:25;11.70;;;7.17;;
7324;SDS011;3703;48.016;7.802;2023-06-22T10:52:53;10.87;;;7.53;;
7324;SDS011;3703;48.016;7.802;2023-06-22T10:55:22;15.27;;;7.80;;
7324;SDS011;3703;48.016;7.802;2023-06-22T10:57:49;12.27;;;7.57;;
7324;SDS011;3703;48.016;7.802;2023-06-22T11:00:17;11.97;;;7.57;;
7324;SDS011;3703;48.016;7.802;2023-06-22T11:02:46;14.03;;;7.63;;
7324;SDS011;3703;48.016;7.802;2023-06-22T11:05:13;13.53;;;7.77;;
7324;SDS011;3703;48.016;7.802;2023-06-22T11:07:41;14.67;;;7.83;;
7324;SDS011;3703;48.016;7.802;2023-06-22T11:10:09;12.90;;;7.80;;
7324;SDS011;3703;48.016;7.802;2023-06-22T11:12:38;11.53;;;7.60;;
7324;SDS011;3703;48.016;7.802;2023-06-22T11:15:06;9.33;;;7.40;;
7324;SDS011;3703;48.016;7.802;2023-06-22T11:17:34;16.93;;;7.37;;
7324;SDS011;3703;48.016;7.802;2023-06-22T11:20:01;9.57;;;7.20;;
7324;SDS011;3703;48.016;7.802;2023-06-22T11:22:35;14.50;;;7.60;;
7324;SDS011;3703;48.016;7.802;2023-06-22T11:25:02;14.97;;;7.93;;
7324;SDS011;3703;48.016;7.802;2023-06-22T11:27:30;12.30;;;8.10;;
7324;SDS011;3703;48.016;7.802;2023-06-22T11:29:58;14.40;;;7.80;;
7324;SDS011;3703;48.016;7.802;2023-06-22T11:32:26;12.40;;;7.20;;
7324;SDS011;3703;48.016;7.802;2023-06-22T11:34:53;11.73;;;7.70;;
7324;SDS011;3703;48.016;7.802;2023-06-22T11:37:20;15.17;;;8.87;;
7324;SDS011;3703;48.016;7.802;2023-06-22T11:39:47;13.67;;;7.37;;
7324;SDS011;3703;48.016;7.802;2023-06-22T11:42:14;12.03;;;8.07;;
7324;SDS011;3703;48.016;7.802;2023-06-22T11:44:41;12.87;;;8.70;;
7324;SDS011;3703;48.016;7.802;2023-06-22T11:47:11;13.57;;;7.80;;
7324;SDS011;3703;48.016;7.802;2023-06-22T11:49:38;12.60;;;8.40;;
7324;SDS011;3703;48.016;7.802;2023-06-22T11:52:05;14.93;;;8.40;;
7324;SDS011;3703;48.016;7.802;2023-06-22T11:54:33;16.90;;;8.70;;
7324;SDS011;3703;48.016;7.802;2023-06-22T11:57:00;13.77;;;8.23;;
7324;SDS011;3703;48.016;7.802;2023-06-22T11:59:27;14.33;;;8.23;;
7324;SDS011;3703;48.016;7.802;2023-06-22T12:01:54;14.40;;;8.50;;
7324;SDS011;3703;48.016;7.802;2023-06-22T12:04:24;14.60;;;8.43;;
7324;SDS011;3703;48.016;7.802;2023-06-22T12:06:51;12.53;;;7.57;;
7324;SDS011;3703;48.016;7.802;2023-06-22T12:09:19;15.00;;;8.30;;
7324;SDS011;3703;48.016;7.802;2023-06-22T12:11:46;16.30;;;8.57;;
7324;SDS011;3703;48.016;7.802;2023-06-22T12:14:13;13.97;;;7.43;;
7324;SDS011;3703;48.016;7.802;2023-06-22T12:16:41;14.70;;;8.27;;
7324;SDS011;3703;48.016;7.802;2023-06-22T12:19:09;16.83;;;8.37;;
7324;SDS011;3703;48.016;7.802;2023-06-22T12:21:38;14.43;;;8.43;;
7324;SDS011;3703;48.016;7.802;2023-06-22T12:24:07;14.77;;;8.80;;
7324;SDS011;3703;48.016;7.802;2023-06-22T12:26:34;12.00;;;8.33;;
7324;SDS011;3703;48.016;7.802;2023-06-22T12:29:01;12.40;;;8.00;;
7324;SDS011;3703;48.016;7.802;2023-06-22T12:31:29;11.60;;;8.30;;
7324;SDS011;3703;48.016;7.802;2023-06-22T12:33:56;12.40;;;7.63;;
7324;SDS011;3703;48.016;7.802;2023-06-22T12:36:23;15.13;;;8.33;;
7324;SDS011;3703;48.016;7.802;2023-06-22T12:38:52;15.60;;;7.80;;
7324;SDS011;3703;48.016;7.802;2023-06-22T12:41:19;11.77;;;7.33;;
7324;SDS011;3703;48.016;7.802;2023-06-22T12:43:46;12.70;;;7.00;;
7324;SDS011;3703;48.016;7.802;2023-06-22T12:46:13;18.40;;;7.37;;
7324;SDS011;3703;48.016;7.802;2023-06-22T12:48:41;12.27;;;6.57;;
7324;SDS011;3703;48.016;7.802;2023-06-22T12:51:08;13.17;;;6.50;;
7324;SDS011;3703;48.016;7.802;2023-06-22T12:53:36;11.73;;;6.87;;
7324;SDS011;3703;48.016;7.802;2023-06-22T12:56:04;10.07;;;6.23;;
7324;SDS011;3703;48.016;7.802;2023-06-22T12:58:32;13.17;;;6.27;;
7324;SDS011;3703;48.016;7.802;2023-06-22T13:00:59;14.07;;;6.60;;
7324;SDS011;3703;48.016;7.802;2023-06-22T13:03:26;10.77;;;5.70;;
7324;SDS011;3703;48.016;7.802;2023-06-22T13:05:53;17.50;;;6.60;;
7324;SDS011;3703;48.016;7.802;2023-06-22T13:08:21;13.87;;;5.73;;
7324;SDS011;3703;48.016;7.802;2023-06-22T13:10:48;19.73;;;6.97;;
7324;SDS011;3703;48.016;7.802;2023-06-22T13:13:17;13.37;;;6.30;;
7324;SDS011;3703;48.016;7.802;2023-06-22T13:15:44;13.00;;;5.87;;
7324;SDS011;3703;48.016;7.802;2023-06-22T13:18:11;18.03;;;6.07;;
7324;SDS011;3703;48.016;7.802;2023-06-22T13:20:38;13.73;;;6.03;;
7324;SDS011;3703;48.016;7.802;2023-06-22T13:23:05;11.63;;;5.93;;
7324;SDS011;3703;48.016;7.802;2023-06-22T13:25:33;15.93;;;6.33;;
7324;SDS011;3703;48.016;7.802;2023-06-22T13:28:00;13.10;;;6.50;;
7324;SDS011;3703;48.016;7.802;2023-06-22T13:30:29;13.97;;;5.87;;
7324;SDS011;3703;48.016;7.802;2023-06-22T13:32:57;16.20;;;6.40;;
7324;SDS011;3703;48.016;7.802;2023-06-22T13:35:24;16.53;;;6.10;;
7324;SDS011;3703;48.016;7.802;2023-06-22T13:37:51;11.83;;;6.30;;
7324;SDS011;3703;48.016;7.802;2023-06-22T13:40:19;15.23;;;6.63;;
7324;SDS011;3703;48.016;7.802;2023-06-22T13:42:46;11.03;;;6.63;;
7324;SDS011;3703;48.016;7.802;2023-06-22T13:45:13;10.13;;;5.90;;
7324;SDS011;3703;48.016;7.802;2023-06-22T13:47:43;13.80;;;6.23;;
7324;SDS011;3703;48.016;7.802;2023-06-22T13:50:11;11.60;;;5.60;;
7324;SDS011;3703;48.016;7.802;2023-06-22T13:52:39;11.90;;;6.03;;
7324;SDS011;3703;48.016;7.802;2023-06-22T13:55:06;10.23;;;6.00;;
7324;SDS011;3703;48.016;7.802;2023-06-22T13:57:35;12.77;;;5.93;;
7324;SDS011;3703;48.016;7.802;2023-06-22T14:00:03;10.03;;;5.40;;
7324;SDS011;3703;48.016;7.802;2023-06-22T14:02:33;13.47;;;6.43;;
7324;SDS011;3703;48.016;7.802;2023-06-22T14:05:02;13.23;;;6.00;;
7324;SDS011;3703;48.016;7.802;2023-06-22T14:07:29;8.67;;;6.00;;
7324;SDS011;3703;48.016;7.802;2023-06-22T14:09:56;12.77;;;6.73;;
7324;SDS011;3703;48.016;7.802;2023-06-22T14:12:24;17.40;;;5.90;;
7324;SDS011;3703;48.016;7.802;2023-06-22T14:14:51;18.30;;;7.00;;
7324;SDS011;3703;48.016;7.802;2023-06-22T14:17:18;13.97;;;7.17;;
7324;SDS011;3703;48.016;7.802;2023-06-22T14:19:50;16.03;;;6.10;;
7324;SDS011;3703;48.016;7.802;2023-06-22T14:22:19;15.73;;;5.90;;
7324;SDS011;3703;48.016;7.802;2023-06-22T14:24:47;11.40;;;5.50;;
7324;SDS011;3703;48.016;7.802;2023-06-22T14:27:15;14.97;;;6.27;;
7324;SDS011;3703;48.016;7.802;2023-06-22T14:29:42;16.03;;;5.43;;
7324;SDS011;3703;48.016;7.802;2023-06-22T14:32:10;11.80;;;6.07;;
7324;SDS011;3703;48.016;7.802;2023-06-22T14:34:37;13.27;;;6.03;;
7324;SDS011;3703;48.016;7.802;2023-06-22T14:37:05;14.03;;;6.43;;
7324;SDS011;3703;48.016;7.802;2023-06-22T14:39:36;13.27;;;5.57;;
7324;SDS011;3703;48.016;7.802;2023-06-22T14:42:03;13.53;;;6.00;;
7324;SDS011;3703;48.016;7.802;2023-06-22T14:44:31;11.13;;;6.07;;
7324;SDS011;3703;48.016;7.802;2023-06-22T14:46:58;11.40;;;5.90;;
7324;SDS011;3703;48.016;7.802;2023-06-22T14:49:26;10.30;;;5.53;;
7324;SDS011;3703;48.016;7.802;2023-06-22T14:51:53;14.50;;;5.40;;
7324;SDS011;3703;48.016;7.802;2023-06-22T14:54:20;13.80;;;6.03;;
7324;SDS011;3703;48.016;7.802;2023-06-22T14:56:50;14.27;;;6.20;;
7324;SDS011;3703;48.016;7.802;2023-06-22T14:59:17;14.53;;;5.80;;
7324;SDS011;3703;48.016;7.802;2023-06-22T15:01:44;15.00;;;6.20;;
7324;SDS011;3703;48.016;7.802;2023-06-22T15:04:11;13.13;;;6.23;;
7324;SDS011;3703;48.016;7.802;2023-06-22T15:06:39;12.40;;;5.43;;